sensor_id;sensor_type;location;lat;lon;timestamp;pressure;altitude;pressure_sealevel;temperature;humidity
53270;BME280;39159;45.634;9.420;2023-02-15T00:01:25;100260.84;;;5.74;67.11
53270;BME280;39159;45.634;9.420;2023-02-15T00:03:50;100261.22;;;5.66;67.86
53270;BME280;39159;45.634;9.420;2023-02-15T00:06:16;100259.38;;;5.54;68.67
53270;BME280;39159;45.634;9.420;2023-02-15T00:08:42;100254.84;;;5.43;69.09
53270;BME280;39159;45.634;9.420;2023-02-15T00:11:12;100258.88;;;5.40;69.01
53270;BME280;39159;45.634;9.420;2023-02-15T00:13:38;100259.00;;;5.34;69.91
53270;BME280;39159;45.634;9.420;2023-02-15T00:16:09;100255.59;;;5.27;70.22
53270;BME280;39159;45.634;9.420;2023-02-15T00:18:35;100250.78;;;5.29;70.04
53270;BME280;39159;45.634;9.420;2023-02-15T00:21:08;100254.06;;;5.31;69.96
53270;BME280;39159;45.634;9.420;2023-02-15T00:23:34;100251.47;;;5.36;69.46
53270;BME280;39159;45.634;9.420;2023-02-15T00:26:11;100250.97;;;5.39;68.88
53270;BME280;39159;45.634;9.420;2023-02-15T00:28:37;100250.47;;;5.42;68.34
53270;BME280;39159;45.634;9.420;2023-02-15T00:31:08;100256.25;;;5.46;68.00
53270;BME280;39159;45.634;9.420;2023-02-15T00:33:34;100247.03;;;5.47;67.62
53270;BME280;39159;45.634;9.420;2023-02-15T00:36:00;100246.81;;;5.48;67.27
53270;BME280;39159;45.634;9.420;2023-02-15T00:38:27;100251.72;;;5.51;66.53
53270;BME280;39159;45.634;9.420;2023-02-15T00:40:54;100254.13;;;5.65;65.69
53270;BME280;39159;45.634;9.420;2023-02-15T00:43:19;100250.22;;;5.72;65.28
53270;BME280;39159;45.634;9.420;2023-02-15T00:45:46;100249.16;;;5.73;65.22
53270;BME280;39159;45.634;9.420;2023-02-15T00:48:11;100259.16;;;5.73;65.12
53270;BME280;39159;45.634;9.420;2023-02-15T00:50:37;100249.41;;;5.72;65.08
53270;BME280;39159;45.634;9.420;2023-02-15T00:53:02;100246.13;;;5.70;65.43
53270;BME280;39159;45.634;9.420;2023-02-15T00:55:28;100245.56;;;5.68;65.62
53270;BME280;39159;45.634;9.420;2023-02-15T00:57:53;100246.88;;;5.65;65.76
53270;BME280;39159;45.634;9.420;2023-02-15T01:00:19;100249.56;;;5.65;65.77
53270;BME280;39159;45.634;9.420;2023-02-15T01:02:44;100246.28;;;5.63;66.00
53270;BME280;39159;45.634;9.420;2023-02-15T01:05:10;100252.16;;;5.60;66.11
53270;BME280;39159;45.634;9.420;2023-02-15T01:07:35;100255.13;;;5.58;66.52
53270;BME280;39159;45.634;9.420;2023-02-15T01:10:00;100264.31;;;5.57;66.97
53270;BME280;39159;45.634;9.420;2023-02-15T01:12:26;100253.97;;;5.54;67.42
53270;BME280;39159;45.634;9.420;2023-02-15T01:14:51;100245.75;;;5.49;67.74
53270;BME280;39159;45.634;9.420;2023-02-15T01:17:17;100250.25;;;5.44;67.71
53270;BME280;39159;45.634;9.420;2023-02-15T01:19:42;100250.75;;;5.40;68.15
53270;BME280;39159;45.634;9.420;2023-02-15T01:22:08;100248.19;;;5.34;68.79
53270;BME280;39159;45.634;9.420;2023-02-15T01:24:33;100242.41;;;5.30;69.04
53270;BME280;39159;45.634;9.420;2023-02-15T01:26:58;100245.34;;;5.29;69.11
53270;BME280;39159;45.634;9.420;2023-02-15T01:29:24;100243.38;;;5.24;69.27
53270;BME280;39159;45.634;9.420;2023-02-15T01:31:49;100248.19;;;5.22;69.66
53270;BME280;39159;45.634;9.420;2023-02-15T01:34:15;100251.78;;;5.11;69.61
53270;BME280;39159;45.634;9.420;2023-02-15T01:36:40;100249.34;;;4.97;70.10
53270;BME280;39159;45.634;9.420;2023-02-15T01:39:06;100244.78;;;4.86;70.49
53270;BME280;39159;45.634;9.420;2023-02-15T01:41:32;100243.59;;;4.82;70.57
53270;BME280;39159;45.634;9.420;2023-02-15T01:44:00;100238.44;;;4.81;70.55
53270;BME280;39159;45.634;9.420;2023-02-15T01:49:03;100237.47;;;4.87;70.04
53270;BME280;39159;45.634;9.420;2023-02-15T01:51:31;100241.63;;;4.89;69.99
53270;BME280;39159;45.634;9.420;2023-02-15T01:54:23;100239.13;;;4.88;69.87
53270;BME280;39159;45.634;9.420;2023-02-15T01:56:52;100230.44;;;4.86;69.79
53270;BME280;39159;45.634;9.420;2023-02-15T01:59:21;100228.31;;;4.88;69.52
53270;BME280;39159;45.634;9.420;2023-02-15T02:01:49;100225.03;;;4.86;69.34
53270;BME280;39159;45.634;9.420;2023-02-15T02:04:29;100222.91;;;4.88;69.25
53270;BME280;39159;45.634;9.420;2023-02-15T02:06:57;100221.25;;;4.87;69.44
53270;BME280;39159;45.634;9.420;2023-02-15T02:09:22;100217.84;;;4.80;70.51
53270;BME280;39159;45.634;9.420;2023-02-15T02:11:48;100215.53;;;4.71;69.93
53270;BME280;39159;45.634;9.420;2023-02-15T02:14:15;100214.25;;;4.62;70.48
53270;BME280;39159;45.634;9.420;2023-02-15T02:19:58;100216.28;;;4.43;71.42
53270;BME280;39159;45.634;9.420;2023-02-15T02:25:52;100222.28;;;4.45;71.41
53270;BME280;39159;45.634;9.420;2023-02-15T02:31:22;100217.47;;;4.47;71.52
53270;BME280;39159;45.634;9.420;2023-02-15T02:33:57;100209.22;;;4.42;71.61
53270;BME280;39159;45.634;9.420;2023-02-15T02:39:16;100216.63;;;4.35;72.47
53270;BME280;39159;45.634;9.420;2023-02-15T02:41:58;100214.16;;;4.33;72.83
53270;BME280;39159;45.634;9.420;2023-02-15T02:44:37;100208.03;;;4.26;72.59
53270;BME280;39159;45.634;9.420;2023-02-15T02:47:27;100212.88;;;4.24;73.33
53270;BME280;39159;45.634;9.420;2023-02-15T02:49:59;100207.94;;;4.09;73.71
53270;BME280;39159;45.634;9.420;2023-02-15T02:52:48;100208.28;;;4.13;73.64
53270;BME280;39159;45.634;9.420;2023-02-15T02:58:00;100209.34;;;4.12;73.69
53270;BME280;39159;45.634;9.420;2023-02-15T03:00:30;100207.47;;;4.01;74.62
53270;BME280;39159;45.634;9.420;2023-02-15T03:03:04;100202.03;;;3.89;75.94
53270;BME280;39159;45.634;9.420;2023-02-15T03:05:34;100207.19;;;3.79;77.17
53270;BME280;39159;45.634;9.420;2023-02-15T03:08:04;100206.34;;;3.66;78.02
53270;BME280;39159;45.634;9.420;2023-02-15T03:10:32;100208.56;;;3.58;78.05
53270;BME280;39159;45.634;9.420;2023-02-15T03:12:59;100216.66;;;3.58;77.93
53270;BME280;39159;45.634;9.420;2023-02-15T03:15:32;100212.19;;;3.51;78.46
53270;BME280;39159;45.634;9.420;2023-02-15T03:18:23;100202.91;;;3.47;79.00
53270;BME280;39159;45.634;9.420;2023-02-15T03:20:51;100204.69;;;3.53;77.80
53270;BME280;39159;45.634;9.420;2023-02-15T03:23:23;100196.50;;;3.60;77.57
53270;BME280;39159;45.634;9.420;2023-02-15T03:25:59;100199.75;;;3.62;77.48
53270;BME280;39159;45.634;9.420;2023-02-15T03:28:30;100185.81;;;3.53;77.64
53270;BME280;39159;45.634;9.420;2023-02-15T03:31:00;100194.25;;;3.57;77.86
53270;BME280;39159;45.634;9.420;2023-02-15T03:33:28;100194.13;;;3.52;78.00
53270;BME280;39159;45.634;9.420;2023-02-15T03:37:15;100194.34;;;3.50;78.64
53270;BME280;39159;45.634;9.420;2023-02-15T03:41:54;100193.41;;;3.45;79.79
53270;BME280;39159;45.634;9.420;2023-02-15T03:44:32;100182.50;;;3.51;78.83
53270;BME280;39159;45.634;9.420;2023-02-15T03:47:13;100176.63;;;3.55;78.76
53270;BME280;39159;45.634;9.420;2023-02-15T03:49:51;100171.59;;;3.58;78.66
53270;BME280;39159;45.634;9.420;2023-02-15T03:52:20;100171.94;;;3.62;78.21
53270;BME280;39159;45.634;9.420;2023-02-15T03:54:46;100171.94;;;3.62;77.98
53270;BME280;39159;45.634;9.420;2023-02-15T04:00:00;100160.44;;;3.66;77.00
53270;BME280;39159;45.634;9.420;2023-02-15T04:05:48;100163.28;;;3.71;77.09
53270;BME280;39159;45.634;9.420;2023-02-15T04:08:14;100158.50;;;3.73;76.38
53270;BME280;39159;45.634;9.420;2023-02-15T04:10:39;100162.13;;;3.79;75.66
53270;BME280;39159;45.634;9.420;2023-02-15T04:13:29;100162.47;;;3.83;75.16
53270;BME280;39159;45.634;9.420;2023-02-15T04:15:55;100170.09;;;3.86;74.24
53270;BME280;39159;45.634;9.420;2023-02-15T04:18:33;100177.75;;;4.01;71.86
53270;BME280;39159;45.634;9.420;2023-02-15T04:21:18;100177.97;;;4.11;71.06
53270;BME280;39159;45.634;9.420;2023-02-15T04:24:02;100176.91;;;4.24;70.27
53270;BME280;39159;45.634;9.420;2023-02-15T04:26:46;100180.44;;;4.24;70.63
53270;BME280;39159;45.634;9.420;2023-02-15T04:29:13;100174.81;;;4.26;71.13
53270;BME280;39159;45.634;9.420;2023-02-15T04:31:39;100172.47;;;4.29;71.84
53270;BME280;39159;45.634;9.420;2023-02-15T04:34:04;100160.00;;;4.28;72.20
53270;BME280;39159;45.634;9.420;2023-02-15T04:36:30;100162.47;;;4.30;72.50
53270;BME280;39159;45.634;9.420;2023-02-15T04:38:55;100166.47;;;4.27;73.08
53270;BME280;39159;45.634;9.420;2023-02-15T04:41:21;100159.66;;;4.25;73.53
53270;BME280;39159;45.634;9.420;2023-02-15T04:43:46;100167.41;;;4.21;73.72
53270;BME280;39159;45.634;9.420;2023-02-15T04:46:11;100167.41;;;4.21;73.83
53270;BME280;39159;45.634;9.420;2023-02-15T04:48:37;100155.44;;;4.17;74.10
53270;BME280;39159;45.634;9.420;2023-02-15T04:51:07;100168.13;;;4.17;73.97
53270;BME280;39159;45.634;9.420;2023-02-15T04:53:33;100172.44;;;4.18;73.83
53270;BME280;39159;45.634;9.420;2023-02-15T04:55:58;100160.72;;;4.12;73.92
53270;BME280;39159;45.634;9.420;2023-02-15T04:58:24;100158.72;;;4.07;74.33
53270;BME280;39159;45.634;9.420;2023-02-15T05:00:49;100160.16;;;3.98;74.48
53270;BME280;39159;45.634;9.420;2023-02-15T05:03:15;100150.97;;;3.99;73.95
53270;BME280;39159;45.634;9.420;2023-02-15T05:05:40;100152.38;;;4.02;73.20
53270;BME280;39159;45.634;9.420;2023-02-15T05:08:06;100152.75;;;4.05;72.49
53270;BME280;39159;45.634;9.420;2023-02-15T05:10:31;100147.09;;;4.19;84.42
53270;BME280;39159;45.634;9.420;2023-02-15T05:12:57;100144.22;;;4.49;87.74
53270;BME280;39159;45.634;9.420;2023-02-15T05:15:22;100148.97;;;4.70;78.80
53270;BME280;39159;45.634;9.420;2023-02-15T05:17:47;100143.22;;;4.78;73.44
53270;BME280;39159;45.634;9.420;2023-02-15T05:20:13;100132.97;;;4.81;71.45
53270;BME280;39159;45.634;9.420;2023-02-15T05:22:38;100129.69;;;4.78;72.00
53270;BME280;39159;45.634;9.420;2023-02-15T05:25:06;100135.56;;;4.75;72.89
53270;BME280;39159;45.634;9.420;2023-02-15T05:27:49;100134.13;;;4.85;76.33
53270;BME280;39159;45.634;9.420;2023-02-15T05:30:33;100132.00;;;4.87;72.71
53270;BME280;39159;45.634;9.420;2023-02-15T05:32:59;100136.44;;;4.93;72.96
53270;BME280;39159;45.634;9.420;2023-02-15T05:35:24;100134.91;;;4.97;71.97
53270;BME280;39159;45.634;9.420;2023-02-15T05:37:50;100141.97;;;4.98;72.70
53270;BME280;39159;45.634;9.420;2023-02-15T05:40:15;100140.81;;;4.94;69.65
53270;BME280;39159;45.634;9.420;2023-02-15T05:42:40;100141.13;;;4.97;72.70
53270;BME280;39159;45.634;9.420;2023-02-15T05:45:06;100137.38;;;4.98;71.68
53270;BME280;39159;45.634;9.420;2023-02-15T05:47:32;100138.53;;;5.03;74.07
53270;BME280;39159;45.634;9.420;2023-02-15T05:49:57;100144.03;;;5.08;73.77
53270;BME280;39159;45.634;9.420;2023-02-15T05:52:23;100140.00;;;5.10;74.63
53270;BME280;39159;45.634;9.420;2023-02-15T05:54:48;100143.59;;;4.99;70.44
53270;BME280;39159;45.634;9.420;2023-02-15T05:57:13;100143.66;;;4.87;73.01
53270;BME280;39159;45.634;9.420;2023-02-15T05:59:39;100154.94;;;4.84;73.41
53270;BME280;39159;45.634;9.420;2023-02-15T06:02:04;100157.91;;;4.71;72.54
53270;BME280;39159;45.634;9.420;2023-02-15T06:04:31;100157.00;;;4.65;75.24
53270;BME280;39159;45.634;9.420;2023-02-15T06:06:57;100156.41;;;4.63;76.31
53270;BME280;39159;45.634;9.420;2023-02-15T06:09:22;100156.41;;;4.63;78.13
53270;BME280;39159;45.634;9.420;2023-02-15T06:11:47;100160.16;;;4.62;74.13
53270;BME280;39159;45.634;9.420;2023-02-15T06:14:13;100158.75;;;4.60;73.10
53270;BME280;39159;45.634;9.420;2023-02-15T06:16:38;100156.88;;;4.60;74.11
53270;BME280;39159;45.634;9.420;2023-02-15T06:19:03;100164.63;;;4.68;76.50
53270;BME280;39159;45.634;9.420;2023-02-15T06:21:30;100163.44;;;4.64;75.42
53270;BME280;39159;45.634;9.420;2023-02-15T06:23:55;100162.16;;;4.67;73.51
53270;BME280;39159;45.634;9.420;2023-02-15T06:26:21;100164.53;;;4.63;71.94
53270;BME280;39159;45.634;9.420;2023-02-15T06:28:46;100176.78;;;4.54;71.29
53270;BME280;39159;45.634;9.420;2023-02-15T06:31:11;100178.31;;;4.50;72.02
53270;BME280;39159;45.634;9.420;2023-02-15T06:33:37;100181.59;;;4.52;71.67
53270;BME280;39159;45.634;9.420;2023-02-15T06:36:03;100188.31;;;4.49;71.33
53270;BME280;39159;45.634;9.420;2023-02-15T06:38:29;100192.88;;;4.37;70.82
53270;BME280;39159;45.634;9.420;2023-02-15T06:40:55;100191.72;;;4.33;70.60
53270;BME280;39159;45.634;9.420;2023-02-15T06:43:20;100193.25;;;4.29;70.45
53270;BME280;39159;45.634;9.420;2023-02-15T06:45:46;100198.31;;;4.25;71.01
53270;BME280;39159;45.634;9.420;2023-02-15T06:48:11;100204.16;;;4.22;71.36
53270;BME280;39159;45.634;9.420;2023-02-15T06:50:37;100198.75;;;4.22;71.04
53270;BME280;39159;45.634;9.420;2023-02-15T06:53:02;100202.53;;;4.21;72.29
53270;BME280;39159;45.634;9.420;2023-02-15T06:55:28;100202.41;;;4.40;75.01
53270;BME280;39159;45.634;9.420;2023-02-15T06:57:53;100202.75;;;4.43;71.86
53270;BME280;39159;45.634;9.420;2023-02-15T07:00:19;100203.13;;;4.35;72.05
53270;BME280;39159;45.634;9.420;2023-02-15T07:02:45;100207.81;;;4.40;71.40
53270;BME280;39159;45.634;9.420;2023-02-15T07:05:10;100211.47;;;4.45;70.57
53270;BME280;39159;45.634;9.420;2023-02-15T07:07:36;100209.09;;;4.49;70.09
53270;BME280;39159;45.634;9.420;2023-02-15T07:10:02;100211.94;;;4.54;70.69
53270;BME280;39159;45.634;9.420;2023-02-15T07:12:28;100212.13;;;4.64;70.51
53270;BME280;39159;45.634;9.420;2023-02-15T07:15:17;100213.06;;;4.70;69.02
53270;BME280;39159;45.634;9.420;2023-02-15T07:17:43;100209.41;;;4.76;69.66
53270;BME280;39159;45.634;9.420;2023-02-15T07:20:17;100216.69;;;4.87;69.03
53270;BME280;39159;45.634;9.420;2023-02-15T07:22:43;100215.38;;;4.90;68.53
53270;BME280;39159;45.634;9.420;2023-02-15T07:25:09;100216.66;;;4.99;68.70
53270;BME280;39159;45.634;9.420;2023-02-15T07:27:35;100218.84;;;5.02;67.87
53270;BME280;39159;45.634;9.420;2023-02-15T07:30:01;100217.91;;;5.08;67.92
53270;BME280;39159;45.634;9.420;2023-02-15T07:32:28;100216.59;;;5.11;67.52
53270;BME280;39159;45.634;9.420;2023-02-15T07:34:54;100222.00;;;5.11;66.88
53270;BME280;39159;45.634;9.420;2023-02-15T07:37:20;100218.56;;;5.15;67.10
53270;BME280;39159;45.634;9.420;2023-02-15T07:39:45;100217.63;;;5.22;67.12
53270;BME280;39159;45.634;9.420;2023-02-15T07:42:10;100217.81;;;5.32;67.82
53270;BME280;39159;45.634;9.420;2023-02-15T07:44:36;100219.00;;;5.36;66.70
53270;BME280;39159;45.634;9.420;2023-02-15T07:47:01;100213.56;;;5.36;67.00
53270;BME280;39159;45.634;9.420;2023-02-15T07:49:27;100219.06;;;5.41;66.36
53270;BME280;39159;45.634;9.420;2023-02-15T07:51:52;100219.75;;;5.48;66.55
53270;BME280;39159;45.634;9.420;2023-02-15T07:54:17;100223.81;;;5.63;66.08
53270;BME280;39159;45.634;9.420;2023-02-15T07:56:43;100221.59;;;5.93;65.57
53270;BME280;39159;45.634;9.420;2023-02-15T07:59:09;100217.31;;;6.31;64.08
53270;BME280;39159;45.634;9.420;2023-02-15T08:01:36;100218.47;;;6.74;62.12
53270;BME280;39159;45.634;9.420;2023-02-15T08:04:03;100220.09;;;7.19;60.00
53270;BME280;39159;45.634;9.420;2023-02-15T08:06:32;100217.53;;;7.57;58.84
53270;BME280;39159;45.634;9.420;2023-02-15T08:08:57;100211.94;;;8.01;57.63
53270;BME280;39159;45.634;9.420;2023-02-15T08:11:25;100209.53;;;8.42;57.49
53270;BME280;39159;45.634;9.420;2023-02-15T08:13:53;100207.53;;;8.80;56.91
53270;BME280;39159;45.634;9.420;2023-02-15T08:16:23;100202.78;;;9.18;56.16
53270;BME280;39159;45.634;9.420;2023-02-15T08:18:48;100199.88;;;9.50;55.11
53270;BME280;39159;45.634;9.420;2023-02-15T08:21:14;100203.19;;;9.88;55.05
53270;BME280;39159;45.634;9.420;2023-02-15T08:23:39;100204.00;;;10.14;52.58
53270;BME280;39159;45.634;9.420;2023-02-15T08:26:05;100197.44;;;10.30;52.32
53270;BME280;39159;45.634;9.420;2023-02-15T08:28:30;100198.75;;;10.58;51.80
53270;BME280;39159;45.634;9.420;2023-02-15T08:31:06;100202.22;;;10.79;52.02
53270;BME280;39159;45.634;9.420;2023-02-15T08:33:33;100205.75;;;10.90;51.21
53270;BME280;39159;45.634;9.420;2023-02-15T08:36:13;100198.59;;;10.99;51.54
53270;BME280;39159;45.634;9.420;2023-02-15T08:38:40;100201.75;;;11.27;50.53
53270;BME280;39159;45.634;9.420;2023-02-15T08:41:11;100201.59;;;11.53;49.12
53270;BME280;39159;45.634;9.420;2023-02-15T08:43:36;100205.13;;;11.53;47.48
53270;BME280;39159;45.634;9.420;2023-02-15T08:46:02;100199.44;;;11.89;48.00
53270;BME280;39159;45.634;9.420;2023-02-15T08:48:27;100203.22;;;11.98;46.02
53270;BME280;39159;45.634;9.420;2023-02-15T08:50:53;100206.38;;;12.11;46.57
53270;BME280;39159;45.634;9.420;2023-02-15T08:53:19;100205.09;;;12.32;46.15
53270;BME280;39159;45.634;9.420;2023-02-15T08:55:47;100198.81;;;12.32;45.31
53270;BME280;39159;45.634;9.420;2023-02-15T08:58:12;100202.06;;;12.58;45.92
53270;BME280;39159;45.634;9.420;2023-02-15T09:00:38;100195.09;;;12.71;44.83
53270;BME280;39159;45.634;9.420;2023-02-15T09:03:03;100197.66;;;12.62;44.63
53270;BME280;39159;45.634;9.420;2023-02-15T09:05:29;100198.63;;;12.95;45.14
53270;BME280;39159;45.634;9.420;2023-02-15T09:07:54;100191.97;;;13.01;44.53
53270;BME280;39159;45.634;9.420;2023-02-15T09:10:19;100194.13;;;13.04;43.39
53270;BME280;39159;45.634;9.420;2023-02-15T09:12:45;100183.75;;;13.20;43.86
53270;BME280;39159;45.634;9.420;2023-02-15T09:15:11;100185.59;;;13.49;43.67
53270;BME280;39159;45.634;9.420;2023-02-15T09:17:36;100187.28;;;13.45;43.06
53270;BME280;39159;45.634;9.420;2023-02-15T09:20:02;100186.47;;;13.63;42.27
53270;BME280;39159;45.634;9.420;2023-02-15T09:22:27;100188.41;;;13.63;42.63
53270;BME280;39159;45.634;9.420;2023-02-15T09:24:55;100187.06;;;13.79;42.50
53270;BME280;39159;45.634;9.420;2023-02-15T09:27:20;100181.44;;;14.03;42.05
53270;BME280;39159;45.634;9.420;2023-02-15T09:29:45;100174.50;;;13.92;42.00
53270;BME280;39159;45.634;9.420;2023-02-15T09:32:13;100187.38;;;14.24;41.36
53270;BME280;39159;45.634;9.420;2023-02-15T09:34:40;100186.59;;;14.51;40.95
53270;BME280;39159;45.634;9.420;2023-02-15T09:37:05;100181.34;;;14.69;40.91
53270;BME280;39159;45.634;9.420;2023-02-15T09:39:31;100179.72;;;14.68;40.45
53270;BME280;39159;45.634;9.420;2023-02-15T09:53:45;100183.53;;;15.22;40.69
53270;BME280;39159;45.634;9.420;2023-02-15T09:56:38;100174.09;;;15.51;39.70
53270;BME280;39159;45.634;9.420;2023-02-15T10:01:50;100177.59;;;15.79;38.99
53270;BME280;39159;45.634;9.420;2023-02-15T10:04:42;100170.75;;;15.99;39.17
53270;BME280;39159;45.634;9.420;2023-02-15T10:08:31;100176.38;;;15.94;39.35
53270;BME280;39159;45.634;9.420;2023-02-15T10:16:11;100173.47;;;15.90;39.32
53270;BME280;39159;45.634;9.420;2023-02-15T10:19:10;100161.25;;;16.05;38.66
53270;BME280;39159;45.634;9.420;2023-02-15T10:24:39;100156.31;;;16.65;38.38
53270;BME280;39159;45.634;9.420;2023-02-15T10:27:18;100153.09;;;16.71;37.49
53270;BME280;39159;45.634;9.420;2023-02-15T10:30:09;100166.75;;;16.36;37.48
53270;BME280;39159;45.634;9.420;2023-02-15T10:32:59;100158.31;;;16.02;37.84
53270;BME280;39159;45.634;9.420;2023-02-15T10:35:27;100164.91;;;16.23;37.27
53270;BME280;39159;45.634;9.420;2023-02-15T10:38:08;100154.22;;;16.62;36.61
53270;BME280;39159;45.634;9.420;2023-02-15T10:41:04;100149.06;;;16.77;35.97
53270;BME280;39159;45.634;9.420;2023-02-15T10:44:13;100152.78;;;16.73;36.54
53270;BME280;39159;45.634;9.420;2023-02-15T10:52:15;100146.84;;;16.80;36.43
53270;BME280;39159;45.634;9.420;2023-02-15T10:55:10;100143.47;;;17.00;36.21
53270;BME280;39159;45.634;9.420;2023-02-15T11:08:25;100125.19;;;17.39;35.74
53270;BME280;39159;45.634;9.420;2023-02-15T11:11:00;100122.56;;;17.86;34.52
53270;BME280;39159;45.634;9.420;2023-02-15T11:13:32;100111.59;;;18.07;33.75
53270;BME280;39159;45.634;9.420;2023-02-15T11:16:07;100110.31;;;18.05;33.41
53270;BME280;39159;45.634;9.420;2023-02-15T11:18:36;100115.19;;;18.08;33.72
53270;BME280;39159;45.634;9.420;2023-02-15T11:21:22;100099.97;;;18.31;33.63
53270;BME280;39159;45.634;9.420;2023-02-15T11:23:51;100098.81;;;18.41;32.73
53270;BME280;39159;45.634;9.420;2023-02-15T11:26:33;100098.41;;;18.21;32.34
53270;BME280;39159;45.634;9.420;2023-02-15T11:29:10;100100.00;;;18.22;32.38
53270;BME280;39159;45.634;9.420;2023-02-15T11:31:44;100093.19;;;18.20;32.67
53270;BME280;39159;45.634;9.420;2023-02-15T11:34:47;100093.69;;;18.22;32.32
53270;BME280;39159;45.634;9.420;2023-02-15T11:37:10;100079.88;;;18.22;32.33
53270;BME280;39159;45.634;9.420;2023-02-15T11:39:37;100083.81;;;18.51;31.97
53270;BME280;39159;45.634;9.420;2023-02-15T11:42:14;100087.78;;;18.62;32.25
53270;BME280;39159;45.634;9.420;2023-02-15T11:45:51;100078.28;;;18.72;31.63
53270;BME280;39159;45.634;9.420;2023-02-15T11:47:45;100070.94;;;18.84;31.38
53270;BME280;39159;45.634;9.420;2023-02-15T11:50:15;100063.38;;;18.94;32.06
53270;BME280;39159;45.634;9.420;2023-02-15T11:52:43;100064.44;;;18.80;31.20
53270;BME280;39159;45.634;9.420;2023-02-15T11:55:19;100063.84;;;18.96;31.58
53270;BME280;39159;45.634;9.420;2023-02-15T11:57:52;100062.81;;;18.50;31.70
53270;BME280;39159;45.634;9.420;2023-02-15T12:02:54;100050.38;;;18.94;31.11
53270;BME280;39159;45.634;9.420;2023-02-15T12:05:23;100051.53;;;19.14;30.42
53270;BME280;39159;45.634;9.420;2023-02-15T12:07:55;100043.53;;;19.13;30.36
53270;BME280;39159;45.634;9.420;2023-02-15T12:10:36;100047.72;;;19.19;30.95
53270;BME280;39159;45.634;9.420;2023-02-15T12:13:14;100044.69;;;19.12;30.92
53270;BME280;39159;45.634;9.420;2023-02-15T12:15:48;100035.78;;;18.85;31.64
53270;BME280;39159;45.634;9.420;2023-02-15T12:18:39;100036.66;;;19.19;31.36
53270;BME280;39159;45.634;9.420;2023-02-15T12:21:11;100041.94;;;18.91;31.72
53270;BME280;39159;45.634;9.420;2023-02-15T12:24:18;100032.41;;;19.00;31.61
53270;BME280;39159;45.634;9.420;2023-02-15T12:27:05;100033.38;;;19.38;31.12
53270;BME280;39159;45.634;9.420;2023-02-15T12:29:42;100025.22;;;19.41;30.95
53270;BME280;39159;45.634;9.420;2023-02-15T12:32:16;100025.34;;;18.91;31.46
53270;BME280;39159;45.634;9.420;2023-02-15T12:34:43;100015.88;;;18.92;31.65
53270;BME280;39159;45.634;9.420;2023-02-15T12:37:26;100012.16;;;19.09;31.19
53270;BME280;39159;45.634;9.420;2023-02-15T12:39:58;100015.00;;;19.00;31.32
53270;BME280;39159;45.634;9.420;2023-02-15T12:42:24;100006.50;;;18.84;30.48
53270;BME280;39159;45.634;9.420;2023-02-15T12:47:25;99996.34;;;18.67;31.35
53270;BME280;39159;45.634;9.420;2023-02-15T12:50:08;99989.63;;;18.98;31.13
53270;BME280;39159;45.634;9.420;2023-02-15T12:52:42;99993.19;;;19.19;30.66
53270;BME280;39159;45.634;9.420;2023-02-15T12:55:25;99992.56;;;19.35;30.74
53270;BME280;39159;45.634;9.420;2023-02-15T12:58:20;99981.50;;;19.47;29.83
53270;BME280;39159;45.634;9.420;2023-02-15T13:00:48;99987.03;;;19.47;30.40
53270;BME280;39159;45.634;9.420;2023-02-15T13:03:26;99974.44;;;19.71;29.15
53270;BME280;39159;45.634;9.420;2023-02-15T13:05:53;99978.13;;;19.75;29.27
53270;BME280;39159;45.634;9.420;2023-02-15T13:08:22;99973.78;;;19.53;29.81
53270;BME280;39159;45.634;9.420;2023-02-15T13:10:54;99967.97;;;19.33;30.78
53270;BME280;39159;45.634;9.420;2023-02-15T13:13:26;99967.16;;;19.33;30.51
53270;BME280;39159;45.634;9.420;2023-02-15T13:15:56;99966.84;;;19.46;29.81
53270;BME280;39159;45.634;9.420;2023-02-15T13:18:31;99963.19;;;19.55;28.94
53270;BME280;39159;45.634;9.420;2023-02-15T13:21:04;99960.00;;;19.77;29.84
53270;BME280;39159;45.634;9.420;2023-02-15T13:23:31;99953.31;;;19.91;30.33
53270;BME280;39159;45.634;9.420;2023-02-15T13:25:58;99955.75;;;19.92;29.48
53270;BME280;39159;45.634;9.420;2023-02-15T13:28:44;99951.81;;;19.93;29.62
53270;BME280;39159;45.634;9.420;2023-02-15T13:31:14;99944.78;;;19.96;28.95
53270;BME280;39159;45.634;9.420;2023-02-15T13:33:53;99944.31;;;19.81;28.94
53270;BME280;39159;45.634;9.420;2023-02-15T13:36:29;99939.31;;;19.62;29.46
53270;BME280;39159;45.634;9.420;2023-02-15T13:47:48;99936.22;;;19.18;30.52
53270;BME280;39159;45.634;9.420;2023-02-15T13:50:20;99931.50;;;18.86;30.90
53270;BME280;39159;45.634;9.420;2023-02-15T13:55:47;99930.00;;;18.46;31.73
53270;BME280;39159;45.634;9.420;2023-02-15T14:01:08;99932.06;;;18.79;31.20
53270;BME280;39159;45.634;9.420;2023-02-15T14:09:48;99930.63;;;18.31;31.78
53270;BME280;39159;45.634;9.420;2023-02-15T14:15:49;99924.97;;;17.97;31.92
53270;BME280;39159;45.634;9.420;2023-02-15T14:18:46;99919.25;;;18.02;32.09
53270;BME280;39159;45.634;9.420;2023-02-15T14:21:18;99922.72;;;17.91;31.92
53270;BME280;39159;45.634;9.420;2023-02-15T14:24:24;99920.50;;;17.84;32.08
53270;BME280;39159;45.634;9.420;2023-02-15T14:32:11;99915.63;;;17.81;32.88
53270;BME280;39159;45.634;9.420;2023-02-15T14:34:59;99918.69;;;17.88;32.36
53270;BME280;39159;45.634;9.420;2023-02-15T14:37:49;99920.66;;;17.88;32.66
53270;BME280;39159;45.634;9.420;2023-02-15T14:41:04;99913.41;;;17.66;32.95
53270;BME280;39159;45.634;9.420;2023-02-15T14:48:53;99907.56;;;17.20;35.07
53270;BME280;39159;45.634;9.420;2023-02-15T15:01:57;99903.59;;;16.56;35.52
53270;BME280;39159;45.634;9.420;2023-02-15T15:04:37;99912.00;;;16.43;35.74
53270;BME280;39159;45.634;9.420;2023-02-15T15:07:26;99909.38;;;16.20;36.86
53270;BME280;39159;45.634;9.420;2023-02-15T15:14:57;99909.34;;;16.03;36.70
53270;BME280;39159;45.634;9.420;2023-02-15T15:22:50;99905.09;;;15.79;38.10
53270;BME280;39159;45.634;9.420;2023-02-15T15:25:50;99912.69;;;15.73;38.22